Time;durP1;ratioP1;P1;durP2;ratioP2;P2;SDS_P1;SDS_P2;PMS_P1;PMS_P2;Temp;Humidity;BMP_temperature;BMP_pressure;BME280_temperature;BME280_humidity;BME280_pressure;Samples;Min_cycle;Max_cycle;Signal;HPM_P1;HPM_P2
2023/05/10 00:01:05;;;;;;;4.03;2.30;;;13.30;99.90;;;;;;5076962;28;19928;-64
2023/05/10 00:03:30;;;;;;;;;;;13.30;99.90;;;;;;5080779;28;20040;-64
2023/05/10 00:05:56;;;;;;;8.85;2.92;;;13.40;99.90;;;;;;5078016;28;19939;-65
2023/05/10 00:08:22;;;;;;;;;;;13.30;99.90;;;;;;5079849;28;20041;-64
2023/05/10 00:10:48;;;;;;;4.85;2.80;;;13.40;99.90;;;;;;5070989;28;20431;-64
2023/05/10 00:13:13;;;;;;;;;;;13.30;99.90;;;;;;5077380;28;20509;-65
2023/05/10 00:15:39;;;;;;;7.50;2.45;;;13.30;99.90;;;;;;5079066;28;19923;-64
2023/05/10 00:18:04;;;;;;;3.13;2.25;;;13.30;99.90;;;;;;5071888;28;20055;-64
2023/05/10 00:20:30;;;;;;;;;;;13.40;99.90;;;;;;5055582;28;20049;-64
2023/05/10 00:22:56;;;;;;;5.30;2.17;;;13.30;99.90;;;;;;5045529;28;19956;-64
2023/05/10 00:25:21;;;;;;;;;;;13.20;99.90;;;;;;5059558;28;20055;-63
2023/05/10 00:27:47;;;;;;;4.32;2.53;;;13.30;99.90;;;;;;5074149;28;19967;-64
2023/05/10 00:30:13;;;;;;;;;;;13.30;99.90;;;;;;5063851;28;20025;-64
2023/05/10 00:32:38;;;;;;;5.07;2.25;;;13.30;99.90;;;;;;5062083;28;19966;-65
2023/05/10 00:35:04;;;;;;;3.45;2.30;;;13.30;99.90;;;;;;5066030;28;20040;-65
2023/05/10 00:37:30;;;;;;;3.40;2.38;;;13.30;99.90;;;;;;5065469;28;20095;-64
2023/05/10 00:39:55;;;;;;;;;;;13.30;99.90;;;;;;5059909;28;20052;-63
2023/05/10 00:42:22;;;;;;;3.22;2.47;;;13.30;99.90;;;;;;5062906;28;19972;-64
2023/05/10 00:44:47;;;;;;;3.85;2.50;;;13.30;99.90;;;;;;5063819;28;20170;-64
2023/05/10 00:47:13;;;;;;;;;;;13.30;99.90;;;;;;5066536;28;20508;-63
2023/05/10 00:49:40;;;;;;;4.32;2.85;;;13.20;99.90;;;;;;5064621;28;20053;-64
2023/05/10 00:52:06;;;;;;;3.72;2.97;;;13.20;99.90;;;;;;5065738;28;20045;-64
2023/05/10 00:54:32;;;;;;;;;;;13.20;99.90;;;;;;5066148;28;20068;-64
2023/05/10 00:56:58;;;;;;;6.70;2.50;;;13.20;99.90;;;;;;5066204;28;19962;-64
2023/05/10 00:59:24;;;;;;;5.47;2.53;;;13.20;99.90;;;;;;5065010;28;20048;-64
2023/05/10 01:01:51;;;;;;;2.80;2.10;;;13.20;99.90;;;;;;5061947;28;20210;-63
2023/05/10 01:04:17;;;;;;;3.22;1.58;;;13.20;99.90;;;;;;5065357;28;20044;-63
2023/05/10 01:06:43;;;;;;;;;;;13.20;99.90;;;;;;5063210;28;20047;-64
2023/05/10 01:09:09;;;;;;;3.70;1.38;;;13.10;99.90;;;;;;5048241;28;19916;-63
2023/05/10 01:11:38;;;;;;;4.03;1.33;;;13.10;99.90;;;;;;5062917;28;20043;-63
2023/05/10 01:14:04;;;;;;;0.77;0.60;;;13.00;99.90;;;;;;5064052;28;20032;-63
2023/05/10 01:16:35;;;;;;;2.22;0.22;;;13.00;99.90;;;;;;5064723;28;20162;-64
2023/05/10 01:19:00;;;;;;;2.50;0.30;;;12.90;99.90;;;;;;5066121;28;20036;-65
2023/05/10 01:21:32;;;;;;;;;;;12.90;99.90;;;;;;5066861;28;20036;-64
2023/05/10 01:24:34;;;;;;;0.50;0.28;;;12.90;99.90;;;;;;5066715;28;19916;-65
2023/05/10 01:27:27;;;;;;;0.20;0.20;;;12.70;99.90;;;;;;5067292;28;20501;-65
2023/05/10 01:30:18;;;;;;;0.20;0.10;;;12.70;99.90;;;;;;5070049;28;20249;-65
2023/05/10 01:32:52;;;;;;;2.20;0.40;;;12.60;99.90;;;;;;5085176;28;20048;-65
2023/05/10 01:35:57;;;;;;;0.90;0.13;;;12.60;99.90;;;;;;5083340;28;20535;-65
2023/05/10 01:38:56;;;;;;;0.30;0.20;;;12.60;99.90;;;;;;5022305;28;20044;-65
2023/05/10 01:41:32;;;;;;;0.20;0.20;;;12.50;99.90;;;;;;5079490;28;20036;-65
2023/05/10 01:44:03;;;;;;;0.17;0.10;;;12.40;99.90;;;;;;5086091;28;20047;-65
2023/05/10 01:46:37;;;;;;;0.22;0.10;;;12.50;99.90;;;;;;5078807;28;20055;-65
2023/05/10 01:49:10;;;;;;;5.30;0.77;;;12.40;99.90;;;;;;5065011;28;20127;-65
2023/05/10 01:51:44;;;;;;;0.10;0.10;;;12.40;99.90;;;;;;5064933;28;20443;-65
2023/05/10 01:54:12;;;;;;;1.08;0.13;;;12.40;99.90;;;;;;5082610;28;20062;-64
2023/05/10 01:56:39;;;;;;;3.63;0.30;;;12.30;99.90;;;;;;5082848;28;20054;-64
2023/05/10 01:59:12;;;;;;;0.60;0.10;;;12.30;99.90;;;;;;5090670;28;20561;-64
2023/05/10 02:01:38;;;;;;;0.65;0.10;;;12.30;99.90;;;;;;5087391;28;20565;-64
2023/05/10 02:04:06;;;;;;;0.10;0.10;;;12.30;99.90;;;;;;5083022;28;20127;-64
2023/05/10 02:06:33;;;;;;;0.10;0.10;;;12.30;99.90;;;;;;5085052;28;20675;-64
2023/05/10 02:09:01;;;;;;;0.50;0.10;;;12.30;99.90;;;;;;5084651;28;20075;-64
2023/05/10 02:11:28;;;;;;;0.25;0.10;;;12.30;99.90;;;;;;5081930;28;20040;-64
2023/05/10 02:13:55;;;;;;;0.10;0.10;;;12.20;99.90;;;;;;5082102;28;20036;-64
2023/05/10 02:16:25;;;;;;;1.65;0.20;;;12.30;99.90;;;;;;5083710;28;20039;-64
2023/05/10 02:18:52;;;;;;;0.20;0.20;;;12.20;99.90;;;;;;5085356;28;20506;-64
2023/05/10 02:21:20;;;;;;;0.10;0.10;;;12.20;99.90;;;;;;5081654;28;20032;-64
2023/05/10 02:23:48;;;;;;;3.15;0.20;;;12.10;99.90;;;;;;5081227;28;20128;-64
2023/05/10 02:26:15;;;;;;;0.30;0.17;;;12.10;99.90;;;;;;5082169;28;20056;-65
2023/05/10 02:28:42;;;;;;;1.00;0.10;;;12.00;99.90;;;;;;5084793;28;20048;-65
2023/05/10 02:31:10;;;;;;;2.75;0.20;;;12.00;99.90;;;;;;5085046;28;20039;-64
2023/05/10 02:33:40;;;;;;;1.45;0.20;;;12.00;99.90;;;;;;5083528;28;20508;-64
2023/05/10 02:36:09;;;;;;;0.73;0.25;;;12.00;99.90;;;;;;5085076;28;20526;-64
2023/05/10 02:38:36;;;;;;;0.10;0.10;;;12.00;99.90;;;;;;5081213;28;20142;-65
2023/05/10 02:41:03;;;;;;;0.10;0.10;;;12.00;99.90;;;;;;5078679;28;20036;-66
2023/05/10 02:43:32;;;;;;;0.17;0.17;;;12.00;99.90;;;;;;5082333;28;20102;-65
2023/05/10 02:45:57;;;;;;;2.35;0.20;;;11.90;99.90;;;;;;5081976;28;20067;-64
2023/05/10 02:48:23;;;;;;;;;;;12.00;99.90;;;;;;5082482;28;20386;-63
2023/05/10 02:50:52;;;;;;;2.50;0.20;;;11.90;99.90;;;;;;5082627;28;20343;-64
2023/05/10 02:53:33;;;;;;;4.50;0.20;;;11.90;99.90;;;;;;5074743;28;20066;-63
2023/05/10 02:56:07;;;;;;;0.75;0.20;;;11.80;99.90;;;;;;5076394;28;20071;-63
2023/05/10 02:58:33;;;;;;;2.17;0.10;;;11.70;99.90;;;;;;5082548;28;20119;-64
2023/05/10 03:00:59;;;;;;;;;;;11.80;99.90;;;;;;5080443;28;20070;-65
2023/05/10 03:03:25;;;;;;;0.80;0.20;;;11.80;99.90;;;;;;5076388;28;20358;-65
2023/05/10 03:05:53;;;;;;;;;;;11.80;99.90;;;;;;5084775;28;20741;-65
2023/05/10 03:08:19;;;;;;;2.65;0.25;;;11.80;99.90;;;;;;5083650;28;19941;-64
2023/05/10 03:11:05;;;;;;;;;;;11.80;99.90;;;;;;5082900;28;20044;-64
2023/05/10 03:13:54;;;;;;;0.20;0.15;;;11.80;99.90;;;;;;5078016;28;19919;-64
2023/05/10 03:16:27;;;;;;;0.10;0.10;;;11.80;99.90;;;;;;5072301;28;20072;-64
2023/05/10 03:19:11;;;;;;;0.17;0.10;;;11.80;99.90;;;;;;5064295;28;20045;-64
2023/05/10 03:21:41;;;;;;;0.10;0.10;;;11.80;99.90;;;;;;5061390;28;20559;-64
2023/05/10 03:24:11;;;;;;;0.28;0.10;;;11.80;99.90;;;;;;5073210;28;20044;-64
2023/05/10 03:26:38;;;;;;;0.17;0.17;;;11.80;99.90;;;;;;5084308;28;20177;-63
2023/05/10 03:29:06;;;;;;;3.30;0.22;;;11.80;99.90;;;;;;5079767;28;20044;-64
2023/05/10 03:31:32;;;;;;;0.10;0.10;;;11.70;99.90;;;;;;5085512;28;20054;-64
2023/05/10 03:33:58;;;;;;;0.47;0.35;;;11.60;99.90;;;;;;5061227;28;20119;-64
2023/05/10 03:36:23;;;;;;;;;;;11.60;99.90;;;;;;5095040;28;20575;-64
2023/05/10 03:38:49;;;;;;;1.15;0.20;;;11.60;99.90;;;;;;5092518;28;20307;-65
2023/05/10 03:41:14;;;;;;;;;;;11.60;99.90;;;;;;5082531;28;20036;-64
2023/05/10 03:43:41;;;;;;;0.20;0.20;;;11.70;99.90;;;;;;5079833;28;20513;-64
2023/05/10 03:46:06;;;;;;;1.08;0.30;;;11.60;99.90;;;;;;5078674;28;20048;-64
2023/05/10 03:48:32;;;;;;;;;;;11.60;99.90;;;;;;5067067;28;20119;-64
2023/05/10 03:50:58;;;;;;;7.00;0.30;;;11.60;99.90;;;;;;5062871;28;20745;-64
2023/05/10 03:53:24;;;;;;;;;;;11.60;99.90;;;;;;5064809;28;20040;-64
2023/05/10 03:55:49;;;;;;;2.60;0.25;;;11.60;99.90;;;;;;5087163;28;19916;-64
2023/05/10 03:58:15;;;;;;;0.50;0.20;;;11.60;99.90;;;;;;5088197;28;20039;-63
2023/05/10 04:00:43;;;;;;;;;;;11.60;99.90;;;;;;5096270;28;20407;-65
2023/05/10 04:03:09;;;;;;;2.97;0.35;;;11.60;99.90;;;;;;5090357;28;20102;-65
2023/05/10 04:05:36;;;;;;;0.28;0.20;;;11.60;99.90;;;;;;5084083;28;20404;-65
2023/05/10 04:08:02;;;;;;;0.45;0.35;;;11.60;99.90;;;;;;5086514;28;20115;-63
2023/05/10 04:10:28;;;;;;;18.13;1.25;;;11.50;99.90;;;;;;5086712;28;20043;-63
2023/05/10 04:12:53;;;;;;;;;;;11.50;99.90;;;;;;5086589;28;20040;-63
2023/05/10 04:15:19;;;;;;;0.88;0.50;;;11.60;99.90;;;;;;5087491;28;19923;-65
2023/05/10 04:17:44;;;;;;;;;;;11.50;99.90;;;;;;5087165;28;20100;-64
2023/05/10 04:20:11;;;;;;;0.55;0.45;;;11.60;99.90;;;;;;5087836;28;19920;-64
2023/05/10 04:22:36;;;;;;;4.80;1.38;;;11.50;99.90;;;;;;5083918;28;20040;-63
2023/05/10 04:25:02;;;;;;;;;;;11.50;99.90;;;;;;5085469;28;20039;-64
2023/05/10 04:27:28;;;;;;;1.77;0.40;;;11.50;99.90;;;;;;5078187;28;19920;-65
2023/05/10 04:29:53;;;;;;;;;;;11.50;99.90;;;;;;5090680;28;20476;-64
2023/05/10 04:32:20;;;;;;;0.82;0.50;;;11.60;99.90;;;;;;5086733;28;19916;-63
2023/05/10 04:34:46;;;;;;;0.50;0.50;;;11.60;99.90;;;;;;5086591;28;20035;-64
2023/05/10 04:37:12;;;;;;;1.30;0.57;;;11.50;99.90;;;;;;5086808;28;20040;-65
2023/05/10 04:39:37;;;;;;;;;;;11.60;99.90;;;;;;5087072;28;20039;-65
2023/05/10 04:42:05;;;;;;;1.00;0.52;;;11.60;99.90;;;;;;5083518;28;19920;-64
2023/05/10 04:44:34;;;;;;;2.58;0.63;;;11.60;99.90;;;;;;5086950;28;20052;-64
2023/05/10 04:47:00;;;;;;;4.25;0.63;;;11.70;99.90;;;;;;5084329;28;20047;-63
2023/05/10 04:49:25;;;;;;;;;;;11.70;99.90;;;;;;5081094;28;20040;-64
2023/05/10 04:51:51;;;;;;;1.33;0.55;;;11.70;99.90;;;;;;5084055;28;19923;-65
2023/05/10 04:54:16;;;;;;;0.75;0.55;;;11.70;99.90;;;;;;5086892;28;20043;-64
2023/05/10 04:56:42;;;;;;;;;;;11.80;99.90;;;;;;5087584;28;20110;-64
2023/05/10 04:59:07;;;;;;;1.38;0.70;;;11.80;99.90;;;;;;5092101;28;19935;-64
2023/05/10 05:01:33;;;;;;;;;;;11.80;99.90;;;;;;5092773;28;20081;-64
2023/05/10 05:03:59;;;;;;;4.10;0.98;;;11.80;99.90;;;;;;5072122;28;20034;-64
2023/05/10 05:06:24;;;;;;;;;;;11.80;99.90;;;;;;5081178;28;20485;-64
2023/05/10 05:08:51;;;;;;;0.90;0.80;;;11.80;99.90;;;;;;5082602;28;19916;-64
2023/05/10 05:11:17;;;;;;;3.10;0.85;;;11.80;99.90;;;;;;5085186;28;20042;-65
2023/05/10 05:13:43;;;;;;;1.70;0.90;;;11.80;99.90;;;;;;5083234;28;20074;-64
2023/05/10 05:16:08;;;;;;;;;;;11.80;99.90;;;;;;5084754;28;20062;-64
2023/05/10 05:18:34;;;;;;;1.02;0.80;;;11.80;99.90;;;;;;5077624;28;20169;-64
2023/05/10 05:21:00;;;;;;;;;;;11.80;99.90;;;;;;5065562;28;20033;-64
2023/05/10 05:23:26;;;;;;;1.08;0.60;;;11.80;99.90;;;;;;5064595;28;19920;-63
2023/05/10 05:25:52;;;;;;;;;;;11.80;99.90;;;;;;5072810;28;20040;-65
2023/05/10 05:28:18;;;;;;;0.98;0.80;;;11.80;99.90;;;;;;5075255;28;19947;-65
2023/05/10 05:30:44;;;;;;;0.90;0.80;;;11.80;99.90;;;;;;5095021;28;20040;-64
2023/05/10 05:33:09;;;;;;;;;;;11.80;99.90;;;;;;5098433;28;20042;-64
2023/05/10 05:35:35;;;;;;;0.93;0.80;;;11.80;99.90;;;;;;5071506;28;19920;-63
2023/05/10 05:38:00;;;;;;;2.03;0.95;;;11.80;99.90;;;;;;5083308;28;20492;-64
2023/05/10 05:40:26;;;;;;;;;;;11.70;99.90;;;;;;5084416;28;20062;-65
2023/05/10 05:42:52;;;;;;;1.25;0.55;;;11.70;99.90;;;;;;5075256;28;19920;-64
2023/05/10 05:45:17;;;;;;;;;;;11.60;99.90;;;;;;5084175;28;20036;-64
2023/05/10 05:47:43;;;;;;;4.25;0.60;;;11.50;99.90;;;;;;5085747;28;20308;-64
2023/05/10 05:50:09;;;;;;;;;;;11.50;99.90;;;;;;5079695;28;20359;-65
2023/05/10 05:52:35;;;;;;;0.98;0.68;;;11.50;99.90;;;;;;5079924;28;19920;-65
2023/05/10 05:55:01;;;;;;;2.47;0.40;;;11.40;99.90;;;;;;5079686;28;20040;-65
2023/05/10 05:57:27;;;;;;;;;;;11.60;99.90;;;;;;5080932;28;20050;-65
2023/05/10 05:59:52;;;;;;;3.03;0.50;;;11.60;99.90;;;;;;5078037;28;19920;-65
2023/05/10 06:02:18;;;;;;;1.55;0.60;;;11.70;99.90;;;;;;5081896;28;20039;-65
2023/05/10 06:04:44;;;;;;;3.63;0.80;;;11.80;99.90;;;;;;5074168;28;20040;-65
2023/05/10 06:07:10;;;;;;;1.10;0.60;;;11.80;99.90;;;;;;5084381;28;20052;-64
2023/05/10 06:09:35;;;;;;;0.85;0.57;;;11.90;99.90;;;;;;5082851;28;20076;-65
2023/05/10 06:12:01;;;;;;;;;;;12.00;99.90;;;;;;5083308;28;20051;-64
2023/05/10 06:14:27;;;;;;;2.88;0.50;;;12.20;99.90;;;;;;5084029;28;19920;-64
2023/05/10 06:16:52;;;;;;;;;;;12.20;99.90;;;;;;5082158;28;20051;-64
2023/05/10 06:19:18;;;;;;;1.85;0.45;;;12.30;99.90;;;;;;5082295;28;20324;-65
2023/05/10 06:21:43;;;;;;;;;;;12.40;99.90;;;;;;5100761;28;20424;-65
2023/05/10 06:24:09;;;;;;;2.65;0.50;;;12.40;99.90;;;;;;5083432;28;19916;-65
2023/05/10 06:26:35;;;;;;;2.75;0.60;;;12.30;99.90;;;;;;5084794;28;20080;-65
2023/05/10 06:29:01;;;;;;;;;;;12.30;99.90;;;;;;5085815;28;20058;-65
2023/05/10 06:31:26;;;;;;;2.92;1.05;;;12.20;99.90;;;;;;5086022;28;19920;-65
2023/05/10 06:33:52;;;;;;;;;;;12.20;99.90;;;;;;5083014;28;20043;-65
2023/05/10 06:36:18;;;;;;;1.38;0.75;;;12.20;99.90;;;;;;5095943;28;19951;-65
2023/05/10 06:38:44;;;;;;;0.82;0.57;;;12.20;99.90;;;;;;5081122;28;20044;-65
2023/05/10 06:41:09;;;;;;;0.68;0.52;;;12.20;99.90;;;;;;5081249;28;20580;-65
2023/05/10 06:43:35;;;;;;;;;;;12.20;99.90;;;;;;5079805;28;20089;-65
2023/05/10 06:46:00;;;;;;;1.95;0.50;;;12.20;99.90;;;;;;5084586;28;20357;-65
2023/05/10 06:48:26;;;;;;;0.85;0.52;;;12.20;99.90;;;;;;5084244;28;20078;-64
2023/05/10 06:50:52;;;;;;;;;;;12.10;99.90;;;;;;5084340;28;20110;-64
2023/05/10 06:53:17;;;;;;;3.03;0.70;;;12.10;99.90;;;;;;5083987;28;20388;-64
2023/05/10 06:55:43;;;;;;;3.22;0.80;;;12.10;99.90;;;;;;5083547;28;20089;-65
2023/05/10 06:58:08;;;;;;;;;;;12.10;99.90;;;;;;5083141;28;20048;-64
2023/05/10 07:00:34;;;;;;;2.95;0.70;;;12.10;99.90;;;;;;5082710;28;20743;-64
2023/05/10 07:02:59;;;;;;;;;;;12.20;99.90;;;;;;5085049;28;20403;-65
2023/05/10 07:05:27;;;;;;;1.42;0.88;;;12.20;99.90;;;;;;5083814;28;20000;-64
2023/05/10 07:07:53;;;;;;;4.70;1.63;;;12.20;99.90;;;;;;5084801;28;20043;-65
2023/05/10 07:10:18;;;;;;;;;;;12.30;99.90;;;;;;5085044;28;20028;-65
2023/05/10 07:12:44;;;;;;;2.17;1.15;;;12.40;99.90;;;;;;5082930;28;19927;-64
2023/05/10 07:15:10;;;;;;;4.97;1.58;;;12.50;99.90;;;;;;5085759;28;20068;-65
2023/05/10 07:17:35;;;;;;;;;;;12.50;99.90;;;;;;5084800;28;20058;-65
2023/05/10 07:20:01;;;;;;;5.80;1.73;;;12.60;99.90;;;;;;5083386;28;19912;-65
2023/05/10 07:22:27;;;;;;;;;;;12.60;99.90;;;;;;5082246;28;20064;-65
2023/05/10 07:24:52;;;;;;;4.13;1.88;;;12.50;99.90;;;;;;5075309;28;19961;-64
2023/05/10 07:27:18;;;;;;;4.90;2.03;;;12.60;99.90;;;;;;5077512;28;20082;-64
2023/05/10 07:29:43;;;;;;;;;;;12.60;99.90;;;;;;5097260;28;20078;-64
2023/05/10 07:32:09;;;;;;;3.10;2.20;;;12.70;99.90;;;;;;5097379;28;19924;-64
2023/05/10 07:34:34;;;;;;;;;;;12.70;99.90;;;;;;5088710;28;20408;-64
2023/05/10 07:37:01;;;;;;;2.38;1.90;;;12.80;99.90;;;;;;5081181;28;20330;-64
2023/05/10 07:39:27;;;;;;;2.85;2.00;;;12.80;99.90;;;;;;5087560;28;20048;-64
2023/05/10 07:41:53;;;;;;;4.03;1.92;;;12.80;99.90;;;;;;5078289;28;20151;-64
2023/05/10 07:44:20;;;;;;;4.95;2.50;;;12.80;99.90;;;;;;5088195;28;20783;-64
2023/05/10 07:46:46;;;;;;;7.55;2.85;;;12.70;99.90;;;;;;5084287;28;20051;-64
2023/05/10 07:49:11;;;;;;;4.07;2.83;;;12.70;99.90;;;;;;5083878;28;20071;-65
2023/05/10 07:51:37;;;;;;;;;;;12.60;99.90;;;;;;5079562;28;20075;-65
2023/05/10 07:54:03;;;;;;;7.47;3.50;;;12.60;99.90;;;;;;5087731;28;19928;-65
2023/05/10 07:56:29;;;;;;;;;;;12.60;99.90;;;;;;5087798;28;20039;-65
2023/05/10 07:58:59;;;;;;;6.28;4.18;;;12.50;99.90;;;;;;5090860;28;19962;-65
2023/05/10 08:01:26;;;;;;;8.25;4.50;;;12.50;99.90;;;;;;5097639;28;20055;-64
2023/05/10 08:03:53;;;;;;;7.72;4.90;;;12.50;99.90;;;;;;5095319;28;20040;-64
2023/05/10 08:06:20;;;;;;;8.60;4.45;;;12.40;99.90;;;;;;5085973;28;20040;-64
2023/05/10 08:08:49;;;;;;;11.23;4.70;;;12.50;99.90;;;;;;5087967;28;20588;-64
2023/05/10 08:11:18;;;;;;;8.68;3.92;;;12.70;99.90;;;;;;5084692;28;20043;-64
2023/05/10 08:13:44;;;;;;;7.25;4.32;;;13.00;99.90;;;;;;5083781;28;20652;-64
2023/05/10 08:16:10;;;;;;;7.32;3.92;;;14.00;99.90;;;;;;5086245;28;20091;-65
2023/05/10 08:18:36;;;;;;;;;;;14.90;99.90;;;;;;5088848;28;20071;-64
2023/05/10 08:21:01;;;;;;;7.63;3.97;;;15.30;99.90;;;;;;5078644;28;19916;-65
2023/05/10 08:23:27;;;;;;;;;;;15.50;99.90;;;;;;5072410;28;20093;-64
2023/05/10 08:25:53;;;;;;;10.77;4.95;;;15.20;99.90;;;;;;5102650;28;20340;-64
2023/05/10 08:28:18;;;;;;;;;;;15.30;99.90;;;;;;5087233;28;20739;-65
2023/05/10 08:30:44;;;;;;;8.90;5.38;;;16.10;99.90;;;;;;5086068;28;19931;-65
2023/05/10 08:33:09;;;;;;;11.30;6.15;;;16.60;99.90;;;;;;5105519;28;20155;-65
2023/05/10 08:35:35;;;;;;;;;;;16.70;99.90;;;;;;5108155;27;20051;-65
2023/05/10 08:38:01;;;;;;;6.78;4.90;;;17.50;99.90;;;;;;5086790;28;19919;-65
2023/05/10 08:40:26;;;;;;;;;;;17.80;99.90;;;;;;5087668;28;20040;-64
2023/05/10 08:43:10;;;;;;;9.10;5.65;;;18.50;99.90;;;;;;5085036;28;19927;-65
2023/05/10 08:45:39;;;;;;;11.32;5.70;;;19.00;99.90;;;;;;5086077;28;20128;-65
2023/05/10 08:48:09;;;;;;;11.68;6.20;;;19.90;99.90;;;;;;5084686;28;20714;-64
2023/05/10 08:50:40;;;;;;;10.73;6.25;;;20.00;99.90;;;;;;5083373;28;20097;-65
2023/05/10 08:53:10;;;;;;;10.27;6.03;;;19.70;99.90;;;;;;5084737;28;20499;-64
2023/05/10 08:55:38;;;;;;;7.75;5.30;;;19.00;99.90;;;;;;5087027;28;20048;-65
2023/05/10 08:58:04;;;;;;;9.57;4.97;;;18.30;99.90;;;;;;5082303;28;20185;-65
2023/05/10 09:00:30;;;;;;;8.00;5.57;;;17.50;99.90;;;;;;5090152;28;20043;-65
2023/05/10 09:02:58;;;;;;;8.73;5.65;;;17.20;99.90;;;;;;5104523;28;20047;-64
2023/05/10 09:05:24;;;;;;;8.05;5.20;;;17.00;99.90;;;;;;5088135;28;20124;-64
2023/05/10 09:07:49;;;;;;;;;;;16.70;99.90;;;;;;5085815;28;20471;-64
2023/05/10 09:10:15;;;;;;;10.30;5.25;;;16.60;99.90;;;;;;5084782;28;19920;-65
2023/05/10 09:12:41;;;;;;;12.10;5.03;;;16.50;99.90;;;;;;5084894;28;20040;-64
2023/05/10 09:15:09;;;;;;;;;;;16.50;99.90;;;;;;5086858;28;20051;-64
2023/05/10 09:17:35;;;;;;;12.68;5.55;;;16.70;99.90;;;;;;5087098;28;19916;-64
2023/05/10 09:20:02;;;;;;;9.60;4.72;;;16.60;99.90;;;;;;5086385;28;20035;-64
2023/05/10 09:22:28;;;;;;;7.55;4.43;;;16.70;99.90;;;;;;5082904;28;20138;-65
2023/05/10 09:25:23;;;;;;;;;;;17.00;99.90;;;;;;5086294;28;20539;-65
2023/05/10 09:27:49;;;;;;;6.10;4.35;;;17.00;99.90;;;;;;5060573;28;19969;-64
2023/05/10 09:30:16;;;;;;;;;;;16.80;99.90;;;;;;5094362;28;20031;-64
2023/05/10 09:32:43;;;;;;;10.45;4.85;;;16.70;99.90;;;;;;5102854;28;19920;-65
2023/05/10 09:35:13;;;;;;;5.65;3.83;;;16.40;99.90;;;;;;5103150;28;20032;-65
2023/05/10 09:37:41;;;;;;;6.10;4.20;;;16.40;99.90;;;;;;5089131;28;20043;-65
2023/05/10 09:40:08;;;;;;;8.30;4.78;;;16.80;99.90;;;;;;5084875;28;20043;-65
2023/05/10 09:42:34;;;;;;;6.63;4.40;;;16.90;99.90;;;;;;5084103;28;20043;-65
2023/05/10 09:45:04;;;;;;;8.80;4.40;;;16.60;99.90;;;;;;5085763;28;20491;-65
2023/05/10 09:47:34;;;;;;;7.88;4.38;;;16.70;99.90;;;;;;5086393;28;20044;-65
2023/05/10 09:50:04;;;;;;;8.27;4.88;;;16.80;99.90;;;;;;5085435;28;20638;-64
2023/05/10 09:52:52;;;;;;;6.70;3.53;;;16.90;99.90;;;;;;5082195;28;20052;-65
2023/05/10 09:55:21;;;;;;;9.15;3.80;;;16.90;99.90;;;;;;5085784;28;20109;-64
2023/05/10 09:57:48;;;;;;;8.52;4.38;;;17.10;99.90;;;;;;5085337;28;20082;-64
2023/05/10 10:00:23;;;;;;;7.43;4.40;;;16.80;99.90;;;;;;5099069;28;20063;-65
2023/05/10 10:02:55;;;;;;;7.80;3.97;;;16.80;99.90;;;;;;5080869;28;20157;-65
2023/05/10 10:05:21;;;;;;;8.32;4.38;;;16.70;99.90;;;;;;5085067;28;20040;-65
2023/05/10 10:07:49;;;;;;;;;;;16.50;99.90;;;;;;5075877;28;20513;-65
2023/05/10 10:10:15;;;;;;;15.82;4.10;;;16.30;99.90;;;;;;5085083;28;20830;-64
2023/05/10 10:12:41;;;;;;;9.45;4.65;;;16.30;99.90;;;;;;5082501;28;20036;-65
2023/05/10 10:15:08;;;;;;;6.50;4.30;;;16.60;99.90;;;;;;5084158;28;20032;-65
2023/05/10 10:17:37;;;;;;;7.75;4.55;;;16.90;99.90;;;;;;5084759;28;20114;-65
2023/05/10 10:20:03;;;;;;;10.60;3.95;;;17.10;99.90;;;;;;5085748;28;20047;-65
2023/05/10 10:22:28;;;;;;;;;;;17.40;99.90;;;;;;5080983;28;20043;-65
2023/05/10 10:24:54;;;;;;;5.28;3.35;;;17.50;99.90;;;;;;5084234;28;19916;-65
2023/05/10 10:27:26;;;;;;;9.32;3.97;;;17.60;99.90;;;;;;5077335;28;20127;-64
2023/05/10 10:30:01;;;;;;;8.60;4.07;;;17.60;99.90;;;;;;5092889;28;20081;-65
2023/05/10 10:33:02;;;;;;;6.07;3.85;;;17.40;99.90;;;;;;5094326;28;20035;-65
2023/05/10 10:35:30;;;;;;;6.32;3.78;;;17.20;99.90;;;;;;5096613;28;20039;-65
2023/05/10 10:37:56;;;;;;;7.47;3.45;;;17.10;99.90;;;;;;5082946;28;20048;-65
2023/05/10 10:40:25;;;;;;;;;;;17.00;99.90;;;;;;5083420;28;20455;-64
2023/05/10 10:42:51;;;;;;;7.50;3.63;;;17.20;99.90;;;;;;5083139;28;19926;-64
2023/05/10 10:45:17;;;;;;;3.70;2.90;;;17.30;99.90;;;;;;5083417;28;20072;-65
2023/05/10 10:47:44;;;;;;;;;;;17.30;99.90;;;;;;5084510;28;20077;-65
2023/05/10 10:50:12;;;;;;;10.13;3.72;;;17.50;99.90;;;;;;5081530;28;19931;-65
2023/05/10 10:52:42;;;;;;;5.38;3.42;;;17.70;99.90;;;;;;5078818;28;20044;-64
2023/05/10 10:55:12;;;;;;;5.90;2.60;;;17.60;99.90;;;;;;5083879;28;20032;-64
2023/05/10 10:57:41;;;;;;;4.35;2.80;;;17.80;99.90;;;;;;5083717;28;20043;-64
2023/05/10 11:00:27;;;;;;;4.97;2.70;;;17.90;99.90;;;;;;5091013;28;20130;-65
2023/05/10 11:03:07;;;;;;;6.75;2.45;;;17.90;99.90;;;;;;5082463;28;20531;-64
2023/05/10 11:05:42;;;;;;;8.15;3.28;;;17.60;99.90;;;;;;5083325;28;20040;-64
2023/05/10 11:08:12;;;;;;;5.32;2.60;;;17.60;99.90;;;;;;5078832;28;20036;-64
2023/05/10 11:10:39;;;;;;;4.55;2.38;;;17.80;99.90;;;;;;5082434;28;20086;-64
2023/05/10 11:13:07;;;;;;;3.70;2.60;;;17.90;99.90;;;;;;5082194;28;20136;-64
2023/05/10 11:15:35;;;;;;;4.10;2.20;;;17.90;99.90;;;;;;5084452;28;20036;-64
2023/05/10 11:18:18;;;;;;;8.63;3.50;;;18.00;99.90;;;;;;5084818;28;20036;-64
2023/05/10 11:20:49;;;;;;;2.83;1.90;;;18.30;99.90;;;;;;5083005;28;20040;-64
2023/05/10 11:23:15;;;;;;;4.35;2.08;;;18.30;99.90;;;;;;5074724;28;20555;-64
2023/05/10 11:25:45;;;;;;;5.20;2.20;;;18.30;99.90;;;;;;5064269;28;20505;-65
2023/05/10 11:28:16;;;;;;;6.75;2.80;;;18.40;99.90;;;;;;5093485;28;20036;-64
2023/05/10 11:30:43;;;;;;;8.27;2.20;;;18.10;99.90;;;;;;5073958;28;20042;-65
2023/05/10 11:33:15;;;;;;;4.18;1.90;;;17.80;99.90;;;;;;5082729;28;20123;-65
2023/05/10 11:35:41;;;;;;;8.52;1.80;;;17.50;99.90;;;;;;5082271;28;20032;-65
2023/05/10 11:38:09;;;;;;;4.65;1.48;;;17.30;99.90;;;;;;5080953;28;20127;-64
2023/05/10 11:40:35;;;;;;;9.00;1.70;;;17.20;99.90;;;;;;5074753;28;20052;-65
2023/05/10 11:43:02;;;;;;;3.70;1.73;;;17.00;99.90;;;;;;5083412;28;20040;-65
2023/05/10 11:45:29;;;;;;;3.72;1.60;;;16.90;99.90;;;;;;5081765;28;20044;-64
2023/05/10 11:47:58;;;;;;;3.33;1.40;;;16.80;99.90;;;;;;5080160;28;20075;-65
2023/05/10 11:50:25;;;;;;;2.60;1.45;;;16.60;99.90;;;;;;5082719;28;20044;-65
2023/05/10 11:52:55;;;;;;;5.28;1.60;;;16.60;99.90;;;;;;5079695;28;20040;-64
2023/05/10 11:55:22;;;;;;;4.53;1.80;;;16.40;99.90;;;;;;5075730;28;20039;-64
2023/05/10 11:57:51;;;;;;;3.80;1.92;;;16.20;99.90;;;;;;5081415;28;20051;-65
2023/05/10 12:00:17;;;;;;;5.13;2.05;;;16.00;99.90;;;;;;5068213;28;20031;-64
2023/05/10 12:02:43;;;;;;;8.32;2.10;;;15.90;99.90;;;;;;5085787;28;20036;-64
2023/05/10 12:05:09;;;;;;;;;;;15.70;99.90;;;;;;5081317;28;20036;-64
2023/05/10 12:07:35;;;;;;;5.17;2.00;;;15.70;99.90;;;;;;5082660;28;19924;-65
2023/05/10 12:10:05;;;;;;;4.60;2.00;;;15.40;99.90;;;;;;5080697;28;20093;-65
2023/05/10 12:12:42;;;;;;;8.32;2.45;;;15.40;99.90;;;;;;5078998;28;20036;-65
2023/05/10 12:15:27;;;;;;;8.60;2.58;;;15.20;99.90;;;;;;5086862;28;20036;-65
2023/05/10 12:17:53;;;;;;;7.43;2.80;;;15.10;99.90;;;;;;5085387;28;20475;-64
2023/05/10 12:20:20;;;;;;;;;;;15.10;99.90;;;;;;5087682;28;20055;-65
2023/05/10 12:22:50;;;;;;;;;;;14.90;99.90;;;;;;5082018;28;20375;-64
2023/05/10 12:25:16;;;;;;;8.45;3.60;;;14.80;99.90;;;;;;5069087;28;20609;-65
2023/05/10 12:27:49;;;;;;;9.10;3.72;;;14.70;99.90;;;;;;5079544;28;20054;-65
2023/05/10 12:30:23;;;;;;;9.50;3.67;;;14.80;99.90;;;;;;5084852;28;20036;-65
2023/05/10 12:32:48;;;;;;;6.38;3.83;;;14.90;99.90;;;;;;5084102;28;20766;-64
2023/05/10 12:35:15;;;;;;;;;;;14.90;99.90;;;;;;5086033;28;20040;-64
2023/05/10 12:37:41;;;;;;;6.10;3.92;;;15.00;99.90;;;;;;5086989;28;19939;-64
2023/05/10 12:40:09;;;;;;;10.80;5.53;;;15.20;99.90;;;;;;5078117;28;20048;-64
2023/05/10 12:42:35;;;;;;;7.82;4.35;;;15.60;99.90;;;;;;5085885;28;20036;-65
2023/05/10 12:45:02;;;;;;;9.10;4.32;;;15.70;99.90;;;;;;5082983;28;20044;-64
2023/05/10 12:47:28;;;;;;;6.68;4.80;;;16.00;99.90;;;;;;5084267;28;20553;-64
2023/05/10 12:49:53;;;;;;;;;;;16.30;99.90;;;;;;5085282;28;20053;-64
2023/05/10 12:52:19;;;;;;;7.70;3.53;;;16.60;99.90;;;;;;5082921;28;19973;-64
2023/05/10 12:54:45;;;;;;;5.63;3.50;;;16.90;99.90;;;;;;5085202;28;20623;-64
2023/05/10 12:57:11;;;;;;;4.43;2.78;;;17.00;99.90;;;;;;5086078;28;20048;-65
2023/05/10 12:59:37;;;;;;;;;;;17.00;99.90;;;;;;5084269;28;20047;-65
2023/05/10 13:02:02;;;;;;;3.47;2.22;;;16.90;99.90;;;;;;5079840;28;19920;-64
2023/05/10 13:04:28;;;;;;;;;;;17.00;99.90;;;;;;5085239;28;20380;-65
2023/05/10 13:06:58;;;;;;;4.35;2.28;;;17.20;99.90;;;;;;5087711;28;19920;-64
2023/05/10 13:09:24;;;;;;;6.90;2.30;;;17.40;99.90;;;;;;5079857;28;20446;-64